»·PEaware :: AAL186 KGJT-KPHX

AAL186 :: KGJT-KPHX

FLIGHT INFORMATION

Flight Status: Arrived
Operator:
American Airlines
More flights by this operator :: More flights under this callsign
Pilot: Josh G. (4619)
Aircraft: AIRBUS A320
(A320)
More flights by this aircraft type
Origin: KGJT Walker
United States
Destination: KPHX Phoenix Sky Harbor Intl
United States
More flights between these airports :: More routes between these airports
Route: +RHONE2 JNC GUP EAGUL6
File this flight plan on PilotEdge
Remarks: Stream
Altitude:
(Current/Filed)
28,000ft
Speed:
(Current/Filed)
320kts
Departed: 26-Oct-17 08:45 AM
Arrived: 26-Oct-17 09:57 AM
Distance/Time
Traveled:
380nm/1:11
Distance/Time
To Go:
Arrived

Flight Plot

Page will automatically refresh every two minutes.

Flight plan parsing failed; only flown route is shown


Map Options




Map Legend


Flown Route
Filed Route
Departure Airport
Arrival Airport
Navaid (VOR, NDB)
Fix

Horizontal Profiles

Position Reports

Time Latitude Longitude Heading Altitude Ground
Speed
26-Oct-17 08:29 39.122964 -108.528301 260 4809ft 0kts
26-Oct-17 08:30 39.122964 -108.528301 260 4809ft 0kts
26-Oct-17 08:31 39.122964 -108.528301 260 4809ft 0kts
26-Oct-17 08:32 39.122964 -108.528301 260 4809ft 0kts
26-Oct-17 08:33 39.122964 -108.528301 260 4809ft 0kts
26-Oct-17 08:34 39.122964 -108.528301 260 4809ft 0kts
26-Oct-17 08:35 39.122964 -108.528301 260 4809ft 0kts
26-Oct-17 08:36 39.122964 -108.528301 260 4809ft 0kts
26-Oct-17 08:37 39.122964 -108.528301 260 4809ft 0kts
26-Oct-17 08:38 39.122964 -108.528301 260 4809ft 0kts
26-Oct-17 08:39 39.122964 -108.528301 260 4809ft 0kts
26-Oct-17 08:40 39.122964 -108.528301 260 4809ft 0kts
26-Oct-17 08:41 39.122974 -108.528221 246 4809ft 1kts
26-Oct-17 08:42 39.123396 -108.528129 129 4809ft 0kts
26-Oct-17 08:43 39.123420 -108.528173 121 4809ft 0kts
26-Oct-17 08:44 39.123420 -108.528173 121 4809ft 0kts
26-Oct-17 08:45 39.123420 -108.528173 121 4809ft 0kts
26-Oct-17 08:46 39.123073 -108.526978 112 4809ft 10kts
26-Oct-17 08:47 39.122500 -108.524094 124 4808ft 14kts
26-Oct-17 08:48 39.119814 -108.519175 126 4809ft 15kts
26-Oct-17 08:49 39.118249 -108.516295 126 4809ft 3kts
26-Oct-17 08:50 39.119902 -108.516923 305 4809ft 53kts
26-Oct-17 08:51 39.143659 -108.561091 302 6232ft 186kts
26-Oct-17 08:52 39.167861 -108.625944 259 8369ft 238kts
26-Oct-17 08:53 39.123199 -108.701971 226 10581ft 293kts
26-Oct-17 08:54 39.060107 -108.783592 206 12123ft 355kts
26-Oct-17 08:55 38.960067 -108.795152 180 14338ft 373kts
26-Oct-17 08:56 38.859966 -108.797260 182 17011ft 368kts
26-Oct-17 08:57 38.757371 -108.799708 183 18095ft 404kts
26-Oct-17 08:58 38.644104 -108.802306 183 19902ft 414kts
26-Oct-17 08:59 38.528810 -108.804961 184 21549ft 424kts
26-Oct-17 09:00 38.409959 -108.807699 184 23051ft 434kts
26-Oct-17 09:01 38.288836 -108.810481 184 24416ft 443kts
26-Oct-17 09:02 38.166366 -108.813290 184 25599ft 453kts
26-Oct-17 09:03 38.040869 -108.816154 185 26695ft 463kts
26-Oct-17 09:04 37.912276 -108.819072 185 27715ft 472kts
26-Oct-17 09:05 37.789733 -108.821832 185 28256ft 479kts
26-Oct-17 09:06 37.661008 -108.824724 185 28255ft 480kts
26-Oct-17 09:07 37.529088 -108.827695 185 28202ft 479kts
26-Oct-17 09:08 37.397371 -108.830648 185 28190ft 479kts
26-Oct-17 09:09 37.264784 -108.833614 185 28194ft 479kts
26-Oct-17 09:10 37.133998 -108.836529 185 28218ft 479kts
26-Oct-17 09:11 37.001579 -108.839469 184 28224ft 480kts
26-Oct-17 09:12 36.876092 -108.842237 185 28275ft 477kts
26-Oct-17 09:13 36.750794 -108.844982 185 28223ft 470kts
26-Oct-17 09:14 36.621971 -108.847822 185 28129ft 466kts
26-Oct-17 09:15 36.493354 -108.850652 185 28116ft 465kts
26-Oct-17 09:16 36.364863 -108.853464 185 28136ft 466kts
26-Oct-17 09:17 36.235817 -108.856274 183 28161ft 467kts
26-Oct-17 09:18 36.110153 -108.859001 185 28249ft 468kts
26-Oct-17 09:19 35.980679 -108.861799 185 28264ft 469kts
26-Oct-17 09:20 35.859606 -108.864406 185 28261ft 469kts
26-Oct-17 09:21 35.734533 -108.867093 184 28255ft 469kts
26-Oct-17 09:22 35.605278 -108.869860 184 28253ft 468kts
26-Oct-17 09:23 35.480717 -108.892279 208 28259ft 457kts
26-Oct-17 09:24 35.386341 -108.989052 229 28239ft 449kts
26-Oct-17 09:25 35.301980 -109.098004 229 28265ft 445kts
26-Oct-17 09:26 35.217673 -109.206607 229 28229ft 443kts
26-Oct-17 09:27 35.133324 -109.314937 229 28222ft 443kts
26-Oct-17 09:28 35.049232 -109.422590 229 28236ft 444kts
26-Oct-17 09:29 34.964535 -109.530667 229 28225ft 444kts
26-Oct-17 09:30 34.884868 -109.632012 229 28220ft 445kts
26-Oct-17 09:31 34.804128 -109.734612 229 28228ft 446kts
26-Oct-17 09:32 34.725985 -109.834387 231 28236ft 445kts
26-Oct-17 09:33 34.670754 -109.956587 247 28247ft 439kts
26-Oct-17 09:34 34.620821 -110.090428 248 28219ft 442kts
26-Oct-17 09:35 34.569647 -110.227079 248 28226ft 453kts
26-Oct-17 09:36 34.517353 -110.366048 248 28321ft 456kts
26-Oct-17 09:37 34.465472 -110.503225 248 27855ft 435kts
26-Oct-17 09:38 34.417305 -110.630114 248 26719ft 404kts
26-Oct-17 09:39 34.378261 -110.732775 247 25728ft 397kts
26-Oct-17 09:40 34.320367 -110.839518 229 24597ft 398kts
26-Oct-17 09:41 34.246169 -110.935232 229 23479ft 391kts
26-Oct-17 09:42 34.173066 -111.029489 229 22352ft 383kts
26-Oct-17 09:43 34.102675 -111.120012 229 21354ft 362kts
26-Oct-17 09:44 34.035132 -111.206734 229 20196ft 356kts
26-Oct-17 09:45 33.969113 -111.291260 229 18848ft 345kts
26-Oct-17 09:46 33.904769 -111.373439 229 17234ft 334kts
26-Oct-17 09:47 33.857653 -111.447976 240 16146ft 314kts
26-Oct-17 09:48 33.813179 -111.532714 241 14728ft 305kts
26-Oct-17 09:49 33.769150 -111.615922 241 13404ft 297kts
26-Oct-17 09:50 33.728622 -111.691880 241 12223ft 290kts
26-Oct-17 09:51 33.688945 -111.766256 241 11352ft 270kts
26-Oct-17 09:52 33.650576 -111.838601 241 10315ft 257kts
26-Oct-17 09:53 33.615925 -111.903744 241 9771ft 240kts
26-Oct-17 09:54 33.581223 -111.968239 237 8642ft 241kts
26-Oct-17 09:55 33.539128 -112.027446 228 6329ft 252kts
26-Oct-17 09:56 33.510897 -112.092709 270 4649ft 227kts
26-Oct-17 09:57 33.500679 -112.159436 219 3494ft 191kts
26-Oct-17 09:58 33.458431 -112.161502 164 3010ft 143kts
26-Oct-17 09:59 33.440776 -112.122014 96 2588ft 144kts
26-Oct-17 10:00 33.440407 -112.076941 92 1875ft 140kts
26-Oct-17 10:01 33.440893 -112.033203 91 1223ft 136kts
26-Oct-17 10:02 33.440837 -112.003653 91 1118ft 39kts
26-Oct-17 10:03 33.439690 -112.000817 159 1118ft 7kts
26-Oct-17 10:04 33.439013 -111.998289 94 1118ft 11kts
26-Oct-17 10:05 33.437847 -111.997361 98 1118ft 0kts
26-Oct-17 10:06 33.437847 -111.997361 98 1118ft 0kts

Navigation Log

Ident Type
Flight plan parsing failed, navigation log unavailable